Terminal Aerodrome Forecast
Issued by NWS

Home | Current Version | Previous Version | Text Only | Print | Product List | Glossary On
Versions: 1 2 3 4 5 6 7 8 9 10 11 12
000
FTUS42 TJSJ 291125
TAFKPK
TAF
TKPK 291125Z 2912/3012 06011KT P6SM FEW020
     FM291230 06014KT P6SM FEW018
     FM292100 07010KT P6SM VCSH SCT020=

USA.gov is the U.S. government's official web portal to all federal, state and local government web resources and services.